Decoded Metar for OIGG (RASHT in IRAN) (IATA:RAS) | Meteo·Mobile Aviation Weather
aviador You're here:

OIGG Decoded Metar

RASHT in IRAN
Report Time2018-09-23 13:30:00
UTC Time2018-09-23 13:49:44
Flight Rules vfr VFR
Wind020° at 04 kt
W.Decomp.*RWY 09: 1.1 kt HW 3.8 kt LCW
W.Rank020° ranks 13
Current wind is below 020° avg. (5.6)
Visibility9999 m
Phenomena:N/A
Clouds:Few CB 020 Hf
Scattered 025 Hf
Overcast 080 Hf
Expected CloudBase > 2,000 ft AGL from Temp-Dew spread
Ceiling8,000 ft
Temp25°C (ISA +10)
Dew Point20°C (74% RH)
QNH1015 hPa
Density Alt1,345 ft
Elevation-43 ft
Report Wrong Elevation
Raw Report
OIGG 231330Z 02004KT 9999 FEW020CB SCT025 OVC080 25/20 Q1015=

Extra information for OIGG:More info

Metar Taf Metar & Taf Last 4 Metars F.Rules Stats Wind Profile Meteogram Temp Stats Airport Information Weather charts Add Link Nearby VenuesMetar ALERT Operation Metar Decoded Social comments